sensor_id;sensor_type;location;lat;lon;timestamp;temperature;humidity
15717;DHT22;7960;50.908;4.204;2023-02-01T00:01:14;6.60;99.90
15717;DHT22;7960;50.908;4.204;2023-02-01T00:03:41;6.60;99.90
15717;DHT22;7960;50.908;4.204;2023-02-01T00:06:08;6.70;99.90
15717;DHT22;7960;50.908;4.204;2023-02-01T00:08:35;6.70;99.90
15717;DHT22;7960;50.908;4.204;2023-02-01T00:11:04;6.70;99.90
15717;DHT22;7960;50.908;4.204;2023-02-01T00:13:34;6.60;99.90
15717;DHT22;7960;50.908;4.204;2023-02-01T00:16:04;6.60;99.90
15717;DHT22;7960;50.908;4.204;2023-02-01T00:18:31;6.70;99.90
15717;DHT22;7960;50.908;4.204;2023-02-01T00:20:58;6.70;99.90
15717;DHT22;7960;50.908;4.204;2023-02-01T00:23:25;6.60;99.90
15717;DHT22;7960;50.908;4.204;2023-02-01T00:25:52;6.70;99.90
15717;DHT22;7960;50.908;4.204;2023-02-01T00:28:19;6.60;99.90
15717;DHT22;7960;50.908;4.204;2023-02-01T00:30:56;6.60;99.90
15717;DHT22;7960;50.908;4.204;2023-02-01T00:33:23;6.70;99.90
15717;DHT22;7960;50.908;4.204;2023-02-01T00:35:50;6.70;99.90
15717;DHT22;7960;50.908;4.204;2023-02-01T00:38:17;6.70;99.90
15717;DHT22;7960;50.908;4.204;2023-02-01T00:40:44;6.70;99.90
15717;DHT22;7960;50.908;4.204;2023-02-01T00:43:10;6.70;99.90
15717;DHT22;7960;50.908;4.204;2023-02-01T00:45:37;6.70;99.90
15717;DHT22;7960;50.908;4.204;2023-02-01T00:48:06;6.70;99.90
15717;DHT22;7960;50.908;4.204;2023-02-01T00:50:33;6.70;99.90
15717;DHT22;7960;50.908;4.204;2023-02-01T00:52:59;6.70;99.90
15717;DHT22;7960;50.908;4.204;2023-02-01T00:55:26;6.70;99.90
15717;DHT22;7960;50.908;4.204;2023-02-01T00:57:53;6.70;99.90
15717;DHT22;7960;50.908;4.204;2023-02-01T01:00:20;6.80;99.90
15717;DHT22;7960;50.908;4.204;2023-02-01T01:02:47;6.80;99.90
15717;DHT22;7960;50.908;4.204;2023-02-01T01:05:15;6.80;99.90
15717;DHT22;7960;50.908;4.204;2023-02-01T01:07:42;6.80;99.90
15717;DHT22;7960;50.908;4.204;2023-02-01T01:10:09;6.70;99.90
15717;DHT22;7960;50.908;4.204;2023-02-01T01:12:36;6.70;99.90
15717;DHT22;7960;50.908;4.204;2023-02-01T01:15:04;6.60;99.90
15717;DHT22;7960;50.908;4.204;2023-02-01T01:17:31;6.60;99.90
15717;DHT22;7960;50.908;4.204;2023-02-01T01:19:58;6.60;99.90
15717;DHT22;7960;50.908;4.204;2023-02-01T01:22:26;6.60;99.90
15717;DHT22;7960;50.908;4.204;2023-02-01T01:24:53;6.60;99.90
15717;DHT22;7960;50.908;4.204;2023-02-01T01:27:20;6.50;99.90
15717;DHT22;7960;50.908;4.204;2023-02-01T01:29:49;6.50;99.90
15717;DHT22;7960;50.908;4.204;2023-02-01T01:32:16;6.50;99.90
15717;DHT22;7960;50.908;4.204;2023-02-01T01:34:43;6.50;99.90
15717;DHT22;7960;50.908;4.204;2023-02-01T01:37:09;6.50;99.90
15717;DHT22;7960;50.908;4.204;2023-02-01T01:39:37;6.40;99.90
15717;DHT22;7960;50.908;4.204;2023-02-01T01:42:04;6.40;99.90
15717;DHT22;7960;50.908;4.204;2023-02-01T01:45:02;6.40;99.90
15717;DHT22;7960;50.908;4.204;2023-02-01T01:47:34;6.40;99.90
15717;DHT22;7960;50.908;4.204;2023-02-01T01:50:05;6.30;99.90
15717;DHT22;7960;50.908;4.204;2023-02-01T01:52:33;6.30;99.90
15717;DHT22;7960;50.908;4.204;2023-02-01T01:55:02;6.40;99.90
15717;DHT22;7960;50.908;4.204;2023-02-01T01:57:33;6.30;99.90
15717;DHT22;7960;50.908;4.204;2023-02-01T02:00:07;6.30;99.90
15717;DHT22;7960;50.908;4.204;2023-02-01T02:02:35;6.30;99.90
15717;DHT22;7960;50.908;4.204;2023-02-01T02:05:02;6.30;99.90
15717;DHT22;7960;50.908;4.204;2023-02-01T02:07:32;6.20;99.90
15717;DHT22;7960;50.908;4.204;2023-02-01T02:10:04;6.20;99.90
15717;DHT22;7960;50.908;4.204;2023-02-01T02:12:31;6.20;99.90
15717;DHT22;7960;50.908;4.204;2023-02-01T02:14:59;6.10;99.90
15717;DHT22;7960;50.908;4.204;2023-02-01T02:17:31;6.10;99.90
15717;DHT22;7960;50.908;4.204;2023-02-01T02:20:31;6.10;99.90
15717;DHT22;7960;50.908;4.204;2023-02-01T02:23:33;6.10;99.90
15717;DHT22;7960;50.908;4.204;2023-02-01T02:26:23;6.20;99.90
15717;DHT22;7960;50.908;4.204;2023-02-01T02:29:14;6.20;99.90
15717;DHT22;7960;50.908;4.204;2023-02-01T02:32:03;6.20;99.90
15717;DHT22;7960;50.908;4.204;2023-02-01T02:34:38;6.20;99.90
15717;DHT22;7960;50.908;4.204;2023-02-01T02:37:14;6.20;99.90
15717;DHT22;7960;50.908;4.204;2023-02-01T02:39:48;6.30;99.90
15717;DHT22;7960;50.908;4.204;2023-02-01T02:42:23;6.30;99.90
15717;DHT22;7960;50.908;4.204;2023-02-01T02:45:14;6.20;99.90
15717;DHT22;7960;50.908;4.204;2023-02-01T02:48:20;6.20;99.90
15717;DHT22;7960;50.908;4.204;2023-02-01T02:50:54;6.20;99.90
15717;DHT22;7960;50.908;4.204;2023-02-01T02:53:48;6.10;99.90
15717;DHT22;7960;50.908;4.204;2023-02-01T02:56:35;6.10;99.90
15717;DHT22;7960;50.908;4.204;2023-02-01T02:59:22;6.10;99.90
15717;DHT22;7960;50.908;4.204;2023-02-01T03:02:09;6.00;99.90
15717;DHT22;7960;50.908;4.204;2023-02-01T03:04:54;6.10;99.90
15717;DHT22;7960;50.908;4.204;2023-02-01T03:08:00;6.00;99.90
15717;DHT22;7960;50.908;4.204;2023-02-01T03:10:35;6.00;99.90
15717;DHT22;7960;50.908;4.204;2023-02-01T03:13:06;6.00;99.90
15717;DHT22;7960;50.908;4.204;2023-02-01T03:15:37;6.00;99.90
15717;DHT22;7960;50.908;4.204;2023-02-01T03:18:09;6.00;99.90
15717;DHT22;7960;50.908;4.204;2023-02-01T03:20:40;6.00;99.90
15717;DHT22;7960;50.908;4.204;2023-02-01T03:23:11;6.00;99.90
15717;DHT22;7960;50.908;4.204;2023-02-01T03:25:40;6.00;99.90
15717;DHT22;7960;50.908;4.204;2023-02-01T03:28:09;5.90;99.90
15717;DHT22;7960;50.908;4.204;2023-02-01T03:30:38;5.90;99.90
15717;DHT22;7960;50.908;4.204;2023-02-01T03:33:09;5.80;99.90
15717;DHT22;7960;50.908;4.204;2023-02-01T03:35:43;5.90;99.90
15717;DHT22;7960;50.908;4.204;2023-02-01T03:38:19;5.90;99.90
15717;DHT22;7960;50.908;4.204;2023-02-01T03:40:52;5.90;99.90
15717;DHT22;7960;50.908;4.204;2023-02-01T03:43:22;5.80;99.90
15717;DHT22;7960;50.908;4.204;2023-02-01T03:45:52;5.80;99.90
15717;DHT22;7960;50.908;4.204;2023-02-01T03:48:20;5.80;99.90
15717;DHT22;7960;50.908;4.204;2023-02-01T03:50:50;5.80;99.90
15717;DHT22;7960;50.908;4.204;2023-02-01T03:53:21;5.80;99.90
15717;DHT22;7960;50.908;4.204;2023-02-01T03:55:50;5.80;99.90
15717;DHT22;7960;50.908;4.204;2023-02-01T03:58:20;5.80;99.90
15717;DHT22;7960;50.908;4.204;2023-02-01T04:00:51;5.80;99.90
15717;DHT22;7960;50.908;4.204;2023-02-01T04:03:18;5.80;99.90
15717;DHT22;7960;50.908;4.204;2023-02-01T04:05:45;5.70;99.90
15717;DHT22;7960;50.908;4.204;2023-02-01T04:08:12;5.70;99.90
15717;DHT22;7960;50.908;4.204;2023-02-01T04:10:40;5.70;99.90
15717;DHT22;7960;50.908;4.204;2023-02-01T04:13:06;5.60;99.90
15717;DHT22;7960;50.908;4.204;2023-02-01T04:15:33;5.60;99.90
15717;DHT22;7960;50.908;4.204;2023-02-01T04:18:00;5.60;99.90
15717;DHT22;7960;50.908;4.204;2023-02-01T04:20:28;5.60;99.90
15717;DHT22;7960;50.908;4.204;2023-02-01T04:22:55;5.60;99.90
15717;DHT22;7960;50.908;4.204;2023-02-01T04:25:21;5.50;99.90
15717;DHT22;7960;50.908;4.204;2023-02-01T04:27:50;5.50;99.90
15717;DHT22;7960;50.908;4.204;2023-02-01T04:30:17;5.40;99.90
15717;DHT22;7960;50.908;4.204;2023-02-01T04:32:44;5.50;99.90
15717;DHT22;7960;50.908;4.204;2023-02-01T04:35:10;5.40;99.90
15717;DHT22;7960;50.908;4.204;2023-02-01T04:37:37;5.40;99.90
15717;DHT22;7960;50.908;4.204;2023-02-01T04:40:05;5.40;99.90
15717;DHT22;7960;50.908;4.204;2023-02-01T04:42:32;5.40;99.90
15717;DHT22;7960;50.908;4.204;2023-02-01T04:45:00;5.40;99.90
15717;DHT22;7960;50.908;4.204;2023-02-01T04:47:27;5.40;99.90
15717;DHT22;7960;50.908;4.204;2023-02-01T04:49:54;5.30;99.90
15717;DHT22;7960;50.908;4.204;2023-02-01T04:52:21;5.30;99.90
15717;DHT22;7960;50.908;4.204;2023-02-01T04:54:48;5.30;99.90
15717;DHT22;7960;50.908;4.204;2023-02-01T04:57:14;5.20;99.90
15717;DHT22;7960;50.908;4.204;2023-02-01T04:59:41;5.10;99.90
15717;DHT22;7960;50.908;4.204;2023-02-01T05:02:09;5.10;99.90
15717;DHT22;7960;50.908;4.204;2023-02-01T05:04:36;5.20;99.90
15717;DHT22;7960;50.908;4.204;2023-02-01T05:07:03;5.20;99.90
15717;DHT22;7960;50.908;4.204;2023-02-01T05:09:30;5.20;99.90
15717;DHT22;7960;50.908;4.204;2023-02-01T05:11:56;5.10;99.90
15717;DHT22;7960;50.908;4.204;2023-02-01T05:14:41;5.10;99.90
15717;DHT22;7960;50.908;4.204;2023-02-01T05:17:09;5.10;99.90
15717;DHT22;7960;50.908;4.204;2023-02-01T05:19:36;5.10;99.90
15717;DHT22;7960;50.908;4.204;2023-02-01T05:22:02;5.00;99.90
15717;DHT22;7960;50.908;4.204;2023-02-01T05:24:29;5.00;99.90
15717;DHT22;7960;50.908;4.204;2023-02-01T05:26:56;5.00;99.90
15717;DHT22;7960;50.908;4.204;2023-02-01T05:29:23;5.00;99.90
15717;DHT22;7960;50.908;4.204;2023-02-01T05:31:50;5.00;99.90
15717;DHT22;7960;50.908;4.204;2023-02-01T05:34:18;5.00;99.90
15717;DHT22;7960;50.908;4.204;2023-02-01T05:36:45;5.00;99.90
15717;DHT22;7960;50.908;4.204;2023-02-01T05:39:12;4.90;99.90
15717;DHT22;7960;50.908;4.204;2023-02-01T05:41:38;4.90;99.90
15717;DHT22;7960;50.908;4.204;2023-02-01T05:44:05;4.90;99.90
15717;DHT22;7960;50.908;4.204;2023-02-01T05:46:33;4.90;99.90
15717;DHT22;7960;50.908;4.204;2023-02-01T05:49:00;4.90;99.90
15717;DHT22;7960;50.908;4.204;2023-02-01T05:51:28;4.80;99.90
15717;DHT22;7960;50.908;4.204;2023-02-01T05:53:55;4.80;99.90
15717;DHT22;7960;50.908;4.204;2023-02-01T05:56:22;4.80;99.90
15717;DHT22;7960;50.908;4.204;2023-02-01T05:58:49;4.80;99.90
15717;DHT22;7960;50.908;4.204;2023-02-01T06:01:15;4.70;99.90
15717;DHT22;7960;50.908;4.204;2023-02-01T06:03:42;4.80;99.90
15717;DHT22;7960;50.908;4.204;2023-02-01T06:06:09;4.70;99.90
15717;DHT22;7960;50.908;4.204;2023-02-01T06:08:37;4.70;99.90
15717;DHT22;7960;50.908;4.204;2023-02-01T06:11:06;4.70;99.90
15717;DHT22;7960;50.908;4.204;2023-02-01T06:13:33;4.60;99.90
15717;DHT22;7960;50.908;4.204;2023-02-01T06:16:00;4.60;99.90
15717;DHT22;7960;50.908;4.204;2023-02-01T06:18:27;4.60;99.90
15717;DHT22;7960;50.908;4.204;2023-02-01T06:20:55;4.60;99.90
15717;DHT22;7960;50.908;4.204;2023-02-01T06:23:22;4.60;99.90
15717;DHT22;7960;50.908;4.204;2023-02-01T06:25:52;4.70;99.90
15717;DHT22;7960;50.908;4.204;2023-02-01T06:28:24;4.70;99.90
15717;DHT22;7960;50.908;4.204;2023-02-01T06:30:51;4.70;99.90
15717;DHT22;7960;50.908;4.204;2023-02-01T06:33:18;4.70;99.90
15717;DHT22;7960;50.908;4.204;2023-02-01T06:35:45;4.70;99.90
15717;DHT22;7960;50.908;4.204;2023-02-01T06:38:13;4.80;99.90
15717;DHT22;7960;50.908;4.204;2023-02-01T06:40:40;4.70;99.90
15717;DHT22;7960;50.908;4.204;2023-02-01T06:43:09;4.80;99.90
15717;DHT22;7960;50.908;4.204;2023-02-01T06:45:35;4.80;99.90
15717;DHT22;7960;50.908;4.204;2023-02-01T06:48:02;4.80;99.90
15717;DHT22;7960;50.908;4.204;2023-02-01T06:50:29;4.80;99.90
15717;DHT22;7960;50.908;4.204;2023-02-01T06:52:56;4.80;99.90
15717;DHT22;7960;50.908;4.204;2023-02-01T06:55:23;4.70;99.90
15717;DHT22;7960;50.908;4.204;2023-02-01T06:57:53;4.80;99.90
15717;DHT22;7960;50.908;4.204;2023-02-01T07:00:22;4.70;99.90
15717;DHT22;7960;50.908;4.204;2023-02-01T07:02:50;4.70;99.90
15717;DHT22;7960;50.908;4.204;2023-02-01T07:05:17;4.70;99.90
15717;DHT22;7960;50.908;4.204;2023-02-01T07:07:44;4.70;99.90
15717;DHT22;7960;50.908;4.204;2023-02-01T07:10:11;4.70;99.90
15717;DHT22;7960;50.908;4.204;2023-02-01T07:12:38;4.70;99.90
15717;DHT22;7960;50.908;4.204;2023-02-01T07:15:06;4.70;99.90
15717;DHT22;7960;50.908;4.204;2023-02-01T07:17:34;4.70;99.90
15717;DHT22;7960;50.908;4.204;2023-02-01T07:20:01;4.70;99.90
15717;DHT22;7960;50.908;4.204;2023-02-01T07:22:28;4.80;99.90
15717;DHT22;7960;50.908;4.204;2023-02-01T07:24:55;4.80;99.90
15717;DHT22;7960;50.908;4.204;2023-02-01T07:27:22;4.80;99.90
15717;DHT22;7960;50.908;4.204;2023-02-01T07:29:50;4.90;99.90
15717;DHT22;7960;50.908;4.204;2023-02-01T07:32:17;4.80;99.90
15717;DHT22;7960;50.908;4.204;2023-02-01T07:34:45;4.90;99.90
15717;DHT22;7960;50.908;4.204;2023-02-01T07:37:12;4.90;99.90
15717;DHT22;7960;50.908;4.204;2023-02-01T07:39:39;5.00;99.90
15717;DHT22;7960;50.908;4.204;2023-02-01T07:42:06;4.90;99.90
15717;DHT22;7960;50.908;4.204;2023-02-01T07:44:33;5.00;99.90
15717;DHT22;7960;50.908;4.204;2023-02-01T07:46:59;5.10;99.90
15717;DHT22;7960;50.908;4.204;2023-02-01T07:49:26;5.10;99.90
15717;DHT22;7960;50.908;4.204;2023-02-01T07:51:54;5.10;99.90
15717;DHT22;7960;50.908;4.204;2023-02-01T07:54:21;5.10;99.90
15717;DHT22;7960;50.908;4.204;2023-02-01T07:56:48;5.10;99.90
15717;DHT22;7960;50.908;4.204;2023-02-01T07:59:15;5.20;99.90
15717;DHT22;7960;50.908;4.204;2023-02-01T08:01:42;5.20;99.90
15717;DHT22;7960;50.908;4.204;2023-02-01T08:04:10;5.20;99.90
15717;DHT22;7960;50.908;4.204;2023-02-01T08:06:39;5.20;99.90
15717;DHT22;7960;50.908;4.204;2023-02-01T08:09:08;5.20;99.90
15717;DHT22;7960;50.908;4.204;2023-02-01T08:11:36;5.20;99.90
15717;DHT22;7960;50.908;4.204;2023-02-01T08:14:04;5.20;99.90
15717;DHT22;7960;50.908;4.204;2023-02-01T08:16:31;5.30;99.90
15717;DHT22;7960;50.908;4.204;2023-02-01T08:19:00;5.20;99.90
15717;DHT22;7960;50.908;4.204;2023-02-01T08:21:28;5.30;99.90
15717;DHT22;7960;50.908;4.204;2023-02-01T08:24:02;5.30;99.90
15717;DHT22;7960;50.908;4.204;2023-02-01T08:26:31;5.30;99.90
15717;DHT22;7960;50.908;4.204;2023-02-01T08:29:00;5.30;99.90
15717;DHT22;7960;50.908;4.204;2023-02-01T08:31:29;5.30;99.90
15717;DHT22;7960;50.908;4.204;2023-02-01T08:33:58;5.30;99.90
15717;DHT22;7960;50.908;4.204;2023-02-01T08:36:26;5.40;99.90
15717;DHT22;7960;50.908;4.204;2023-02-01T08:38:53;5.40;99.90
15717;DHT22;7960;50.908;4.204;2023-02-01T08:41:22;5.50;99.90
15717;DHT22;7960;50.908;4.204;2023-02-01T08:43:51;5.60;99.90
15717;DHT22;7960;50.908;4.204;2023-02-01T08:46:18;5.70;99.90
15717;DHT22;7960;50.908;4.204;2023-02-01T08:48:46;5.70;99.90
15717;DHT22;7960;50.908;4.204;2023-02-01T08:51:14;5.80;99.90
15717;DHT22;7960;50.908;4.204;2023-02-01T08:53:41;5.80;99.90
15717;DHT22;7960;50.908;4.204;2023-02-01T08:56:08;5.80;99.90
15717;DHT22;7960;50.908;4.204;2023-02-01T08:58:36;5.80;99.90
15717;DHT22;7960;50.908;4.204;2023-02-01T09:01:05;5.90;99.90
15717;DHT22;7960;50.908;4.204;2023-02-01T09:03:33;6.00;99.90
15717;DHT22;7960;50.908;4.204;2023-02-01T09:06:01;5.90;99.90
15717;DHT22;7960;50.908;4.204;2023-02-01T09:08:27;6.00;99.90
15717;DHT22;7960;50.908;4.204;2023-02-01T09:10:58;5.90;99.90
15717;DHT22;7960;50.908;4.204;2023-02-01T09:13:25;6.00;99.90
15717;DHT22;7960;50.908;4.204;2023-02-01T09:15:52;6.10;99.90
15717;DHT22;7960;50.908;4.204;2023-02-01T09:18:21;6.20;99.90
15717;DHT22;7960;50.908;4.204;2023-02-01T09:20:47;6.30;99.90
15717;DHT22;7960;50.908;4.204;2023-02-01T09:23:14;6.40;99.90
15717;DHT22;7960;50.908;4.204;2023-02-01T09:25:41;6.50;99.90
15717;DHT22;7960;50.908;4.204;2023-02-01T09:28:08;6.60;99.90
15717;DHT22;7960;50.908;4.204;2023-02-01T09:30:35;6.60;99.90
15717;DHT22;7960;50.908;4.204;2023-02-01T09:33:02;6.80;99.90
15717;DHT22;7960;50.908;4.204;2023-02-01T09:35:30;6.90;99.90
15717;DHT22;7960;50.908;4.204;2023-02-01T09:37:57;7.00;99.90
15717;DHT22;7960;50.908;4.204;2023-02-01T09:40:24;7.00;99.90
15717;DHT22;7960;50.908;4.204;2023-02-01T09:43:06;7.10;99.90
15717;DHT22;7960;50.908;4.204;2023-02-01T09:45:44;7.30;99.90
15717;DHT22;7960;50.908;4.204;2023-02-01T09:48:17;7.40;99.90
15717;DHT22;7960;50.908;4.204;2023-02-01T09:50:51;7.50;99.90
15717;DHT22;7960;50.908;4.204;2023-02-01T09:53:23;7.70;99.90
15717;DHT22;7960;50.908;4.204;2023-02-01T09:55:54;7.70;99.90
15717;DHT22;7960;50.908;4.204;2023-02-01T09:58:25;7.70;99.90
15717;DHT22;7960;50.908;4.204;2023-02-01T10:00:55;7.80;99.90
15717;DHT22;7960;50.908;4.204;2023-02-01T10:03:24;7.90;99.90
15717;DHT22;7960;50.908;4.204;2023-02-01T10:06:06;7.90;99.90
15717;DHT22;7960;50.908;4.204;2023-02-01T10:08:47;8.10;99.90
15717;DHT22;7960;50.908;4.204;2023-02-01T10:11:26;8.20;99.90
15717;DHT22;7960;50.908;4.204;2023-02-01T10:14:01;8.30;99.90
15717;DHT22;7960;50.908;4.204;2023-02-01T10:16:37;8.40;99.90
15717;DHT22;7960;50.908;4.204;2023-02-01T10:19:24;8.60;99.90
15717;DHT22;7960;50.908;4.204;2023-02-01T10:22:00;8.40;99.90
15717;DHT22;7960;50.908;4.204;2023-02-01T10:24:41;8.40;99.90
15717;DHT22;7960;50.908;4.204;2023-02-01T10:27:13;8.50;99.90
15717;DHT22;7960;50.908;4.204;2023-02-01T10:29:42;8.60;99.90
15717;DHT22;7960;50.908;4.204;2023-02-01T10:32:14;8.50;99.90
15717;DHT22;7960;50.908;4.204;2023-02-01T10:34:41;8.60;99.90
15717;DHT22;7960;50.908;4.204;2023-02-01T10:37:20;8.70;99.90
15717;DHT22;7960;50.908;4.204;2023-02-01T10:39:49;8.80;99.90
15717;DHT22;7960;50.908;4.204;2023-02-01T10:42:20;8.80;99.90
15717;DHT22;7960;50.908;4.204;2023-02-01T10:44:48;8.80;99.90
15717;DHT22;7960;50.908;4.204;2023-02-01T10:47:15;9.10;99.90
15717;DHT22;7960;50.908;4.204;2023-02-01T10:49:49;9.10;99.90
15717;DHT22;7960;50.908;4.204;2023-02-01T10:52:21;9.30;99.90
15717;DHT22;7960;50.908;4.204;2023-02-01T10:54:51;9.40;99.90
15717;DHT22;7960;50.908;4.204;2023-02-01T10:57:24;9.40;99.90
15717;DHT22;7960;50.908;4.204;2023-02-01T10:59:51;9.30;99.90
15717;DHT22;7960;50.908;4.204;2023-02-01T11:02:24;9.10;99.90
15717;DHT22;7960;50.908;4.204;2023-02-01T11:05:00;9.00;99.90
15717;DHT22;7960;50.908;4.204;2023-02-01T11:07:29;9.10;99.90
15717;DHT22;7960;50.908;4.204;2023-02-01T11:09:56;9.20;99.90
15717;DHT22;7960;50.908;4.204;2023-02-01T11:12:28;9.30;99.90
15717;DHT22;7960;50.908;4.204;2023-02-01T11:15:03;9.30;99.90
15717;DHT22;7960;50.908;4.204;2023-02-01T11:17:42;9.40;99.90
15717;DHT22;7960;50.908;4.204;2023-02-01T11:20:15;9.50;99.90
15717;DHT22;7960;50.908;4.204;2023-02-01T11:22:47;9.70;99.90
15717;DHT22;7960;50.908;4.204;2023-02-01T11:25:16;9.30;99.90
15717;DHT22;7960;50.908;4.204;2023-02-01T11:27:43;9.30;99.90
15717;DHT22;7960;50.908;4.204;2023-02-01T11:30:15;9.30;99.90
15717;DHT22;7960;50.908;4.204;2023-02-01T11:32:44;9.10;99.90
15717;DHT22;7960;50.908;4.204;2023-02-01T11:35:16;9.10;99.90
15717;DHT22;7960;50.908;4.204;2023-02-01T11:37:45;9.10;99.90
15717;DHT22;7960;50.908;4.204;2023-02-01T11:40:26;9.10;99.90
15717;DHT22;7960;50.908;4.204;2023-02-01T11:42:55;9.10;99.90
15717;DHT22;7960;50.908;4.204;2023-02-01T11:45:26;9.30;99.90
15717;DHT22;7960;50.908;4.204;2023-02-01T11:47:54;9.70;99.90
15717;DHT22;7960;50.908;4.204;2023-02-01T11:50:28;9.90;99.90
15717;DHT22;7960;50.908;4.204;2023-02-01T11:53:12;10.20;99.90
15717;DHT22;7960;50.908;4.204;2023-02-01T11:55:53;10.30;99.90
15717;DHT22;7960;50.908;4.204;2023-02-01T11:58:52;10.30;99.90
15717;DHT22;7960;50.908;4.204;2023-02-01T12:01:31;10.20;99.90
15717;DHT22;7960;50.908;4.204;2023-02-01T12:04:39;10.30;99.90
15717;DHT22;7960;50.908;4.204;2023-02-01T12:07:14;9.90;99.90
15717;DHT22;7960;50.908;4.204;2023-02-01T12:09:58;9.80;99.90
15717;DHT22;7960;50.908;4.204;2023-02-01T12:12:35;9.70;99.90
15717;DHT22;7960;50.908;4.204;2023-02-01T12:15:18;9.70;99.90
15717;DHT22;7960;50.908;4.204;2023-02-01T12:17:58;9.60;99.90
15717;DHT22;7960;50.908;4.204;2023-02-01T12:20:49;9.50;99.90
15717;DHT22;7960;50.908;4.204;2023-02-01T12:23:31;9.70;99.90
15717;DHT22;7960;50.908;4.204;2023-02-01T12:26:13;9.80;99.90
15717;DHT22;7960;50.908;4.204;2023-02-01T12:29:07;10.10;99.90
15717;DHT22;7960;50.908;4.204;2023-02-01T12:31:55;10.50;99.90
15717;DHT22;7960;50.908;4.204;2023-02-01T12:34:47;10.30;99.90
15717;DHT22;7960;50.908;4.204;2023-02-01T12:37:23;10.40;99.90
15717;DHT22;7960;50.908;4.204;2023-02-01T12:39:57;10.60;99.90
15717;DHT22;7960;50.908;4.204;2023-02-01T12:42:30;10.60;99.90
15717;DHT22;7960;50.908;4.204;2023-02-01T12:45:03;10.70;99.90
15717;DHT22;7960;50.908;4.204;2023-02-01T12:47:40;10.90;99.90
15717;DHT22;7960;50.908;4.204;2023-02-01T12:50:14;11.00;99.90
15717;DHT22;7960;50.908;4.204;2023-02-01T12:52:49;10.90;99.90
15717;DHT22;7960;50.908;4.204;2023-02-01T12:55:22;10.90;99.90
15717;DHT22;7960;50.908;4.204;2023-02-01T12:57:52;10.80;99.90
15717;DHT22;7960;50.908;4.204;2023-02-01T13:00:26;10.90;99.90
15717;DHT22;7960;50.908;4.204;2023-02-01T13:03:00;10.70;99.90
15717;DHT22;7960;50.908;4.204;2023-02-01T13:05:37;10.60;99.90
15717;DHT22;7960;50.908;4.204;2023-02-01T13:08:09;10.40;99.90
15717;DHT22;7960;50.908;4.204;2023-02-01T13:10:40;10.40;99.90
15717;DHT22;7960;50.908;4.204;2023-02-01T13:13:14;10.50;99.90
15717;DHT22;7960;50.908;4.204;2023-02-01T13:15:48;10.70;99.90
15717;DHT22;7960;50.908;4.204;2023-02-01T13:18:18;10.70;99.90
15717;DHT22;7960;50.908;4.204;2023-02-01T13:20:50;10.90;99.90
15717;DHT22;7960;50.908;4.204;2023-02-01T13:23:26;10.70;99.90
15717;DHT22;7960;50.908;4.204;2023-02-01T13:25:54;10.60;99.80
15717;DHT22;7960;50.908;4.204;2023-02-01T13:28:26;10.50;99.90
15717;DHT22;7960;50.908;4.204;2023-02-01T13:31:16;10.60;99.90
15717;DHT22;7960;50.908;4.204;2023-02-01T13:33:57;10.50;99.90
15717;DHT22;7960;50.908;4.204;2023-02-01T13:36:44;10.40;99.90
15717;DHT22;7960;50.908;4.204;2023-02-01T13:39:30;10.50;99.90
15717;DHT22;7960;50.908;4.204;2023-02-01T13:42:01;10.70;99.90
15717;DHT22;7960;50.908;4.204;2023-02-01T13:44:31;10.70;99.90
15717;DHT22;7960;50.908;4.204;2023-02-01T13:47:03;10.60;99.80
15717;DHT22;7960;50.908;4.204;2023-02-01T13:49:32;10.30;99.70
15717;DHT22;7960;50.908;4.204;2023-02-01T13:52:03;10.30;99.90
15717;DHT22;7960;50.908;4.204;2023-02-01T13:54:31;10.20;99.90
15717;DHT22;7960;50.908;4.204;2023-02-01T13:57:00;10.30;99.90
15717;DHT22;7960;50.908;4.204;2023-02-01T13:59:49;10.30;99.90
15717;DHT22;7960;50.908;4.204;2023-02-01T14:05:56;10.50;99.90
15717;DHT22;7960;50.908;4.204;2023-02-01T14:08:39;10.50;99.90
15717;DHT22;7960;50.908;4.204;2023-02-01T14:11:37;10.50;99.90
15717;DHT22;7960;50.908;4.204;2023-02-01T14:17:34;10.40;99.90
15717;DHT22;7960;50.908;4.204;2023-02-01T14:23:23;10.10;99.90
15717;DHT22;7960;50.908;4.204;2023-02-01T14:26:14;10.00;99.90
15717;DHT22;7960;50.908;4.204;2023-02-01T14:28:50;9.90;99.90
15717;DHT22;7960;50.908;4.204;2023-02-01T14:32:00;9.90;99.90
15717;DHT22;7960;50.908;4.204;2023-02-01T14:34:40;10.00;99.90
15717;DHT22;7960;50.908;4.204;2023-02-01T14:37:25;10.00;99.90
15717;DHT22;7960;50.908;4.204;2023-02-01T14:39:56;9.90;99.90
15717;DHT22;7960;50.908;4.204;2023-02-01T14:42:32;9.80;99.90
15717;DHT22;7960;50.908;4.204;2023-02-01T14:51:01;9.80;99.90
15717;DHT22;7960;50.908;4.204;2023-02-01T14:53:33;9.70;99.90
15717;DHT22;7960;50.908;4.204;2023-02-01T14:56:06;9.80;99.90
15717;DHT22;7960;50.908;4.204;2023-02-01T14:58:40;9.80;99.90
15717;DHT22;7960;50.908;4.204;2023-02-01T15:01:17;9.80;99.90
15717;DHT22;7960;50.908;4.204;2023-02-01T15:03:50;9.70;99.90
15717;DHT22;7960;50.908;4.204;2023-02-01T15:06:30;9.70;99.90
15717;DHT22;7960;50.908;4.204;2023-02-01T15:09:04;9.60;99.90
15717;DHT22;7960;50.908;4.204;2023-02-01T15:11:31;9.50;99.90
15717;DHT22;7960;50.908;4.204;2023-02-01T15:13:58;9.40;99.90
15717;DHT22;7960;50.908;4.204;2023-02-01T15:16:26;9.40;99.90
15717;DHT22;7960;50.908;4.204;2023-02-01T15:19:10;9.30;99.90
15717;DHT22;7960;50.908;4.204;2023-02-01T15:21:47;9.30;99.90
15717;DHT22;7960;50.908;4.204;2023-02-01T15:24:19;9.20;99.90
15717;DHT22;7960;50.908;4.204;2023-02-01T15:26:47;9.30;99.90
15717;DHT22;7960;50.908;4.204;2023-02-01T15:29:14;9.20;99.90
15717;DHT22;7960;50.908;4.204;2023-02-01T15:31:43;9.20;99.90
15717;DHT22;7960;50.908;4.204;2023-02-01T15:34:11;9.30;99.90
15717;DHT22;7960;50.908;4.204;2023-02-01T15:39:19;9.30;99.90
15717;DHT22;7960;50.908;4.204;2023-02-01T15:41:50;9.30;99.90
15717;DHT22;7960;50.908;4.204;2023-02-01T15:44:28;9.20;99.90
15717;DHT22;7960;50.908;4.204;2023-02-01T15:46:55;9.20;99.90
15717;DHT22;7960;50.908;4.204;2023-02-01T15:49:26;9.10;99.90
15717;DHT22;7960;50.908;4.204;2023-02-01T15:51:54;9.10;99.90
15717;DHT22;7960;50.908;4.204;2023-02-01T15:54:25;9.10;99.90
15717;DHT22;7960;50.908;4.204;2023-02-01T15:56:54;9.10;99.90
15717;DHT22;7960;50.908;4.204;2023-02-01T15:59:24;9.00;99.90
15717;DHT22;7960;50.908;4.204;2023-02-01T16:01:52;9.00;99.90
15717;DHT22;7960;50.908;4.204;2023-02-01T16:04:22;9.00;99.90
15717;DHT22;7960;50.908;4.204;2023-02-01T16:06:51;9.00;99.90
15717;DHT22;7960;50.908;4.204;2023-02-01T16:09:21;8.90;99.90
15717;DHT22;7960;50.908;4.204;2023-02-01T16:12:00;9.00;99.90
15717;DHT22;7960;50.908;4.204;2023-02-01T16:14:27;8.90;99.90
15717;DHT22;7960;50.908;4.204;2023-02-01T16:16:56;9.00;99.90
15717;DHT22;7960;50.908;4.204;2023-02-01T16:19:23;9.00;99.90
15717;DHT22;7960;50.908;4.204;2023-02-01T16:21:53;8.90;99.90
15717;DHT22;7960;50.908;4.204;2023-02-01T16:24:20;8.90;99.90
15717;DHT22;7960;50.908;4.204;2023-02-01T16:26:48;8.90;99.90
15717;DHT22;7960;50.908;4.204;2023-02-01T16:29:16;8.90;99.90
15717;DHT22;7960;50.908;4.204;2023-02-01T16:31:43;8.80;99.90
15717;DHT22;7960;50.908;4.204;2023-02-01T16:34:14;8.90;99.90
15717;DHT22;7960;50.908;4.204;2023-02-01T16:36:42;8.80;99.90
15717;DHT22;7960;50.908;4.204;2023-02-01T16:39:17;8.80;99.90
15717;DHT22;7960;50.908;4.204;2023-02-01T16:41:44;8.90;99.90
15717;DHT22;7960;50.908;4.204;2023-02-01T16:44:11;8.80;99.90
15717;DHT22;7960;50.908;4.204;2023-02-01T16:46:41;8.70;99.90